Time;durP1;ratioP1;P1;durP2;ratioP2;P2;SDS_P1;SDS_P2;PMS_P1;PMS_P2;Temp;Humidity;BMP_temperature;BMP_pressure;BME280_temperature;BME280_humidity;BME280_pressure;Samples;Min_cycle;Max_cycle;Signal;HPM_P1;HPM_P2
2022/03/07 06:24:11;;;;;;;15.65;9.88;;;;;;;-1.21;nan;102781.31;4786294;29;20060;-65
2022/03/07 06:26:38;;;;;;;15.02;9.52;;;;;;;-1.12;nan;102780.94;4788494;29;20536;-66
2022/03/07 06:29:06;;;;;;;15.10;9.35;;;;;;;-1.22;nan;102773.53;4793190;29;20577;-67
2022/03/07 06:31:34;;;;;;;16.45;10.05;;;;;;;-1.19;nan;102779.72;4803971;29;20121;-66
2022/03/07 06:34:02;;;;;;;15.93;9.15;;;;;;;-1.26;nan;102780.22;4804049;29;20048;-69
2022/03/07 06:36:30;;;;;;;12.93;9.45;;;;;;;-1.53;nan;102775.34;4799518;29;20067;-69
2022/03/07 06:38:57;;;;;;;16.15;9.48;;;;;;;-1.80;nan;102775.53;4804261;29;20864;-68
2022/03/07 06:41:24;;;;;;;19.58;10.00;;;;;;;-147.05;0.00;58546.16;4800846;29;20923;-69
2022/03/07 06:43:51;;;;;;;15.00;9.95;;;;;;;-147.05;0.00;58546.16;4803602;29;20120;-69
2022/03/07 06:46:18;;;;;;;16.55;10.30;;;;;;;-147.05;0.00;58546.16;4806788;29;20682;-70
2022/03/07 06:48:45;;;;;;;19.20;10.18;;;;;;;-147.05;0.00;58546.16;4805613;29;20047;-69
2022/03/07 06:51:12;;;;;;;15.50;10.50;;;;;;;-147.05;0.00;58546.16;4808076;29;20047;-70
2022/03/07 06:53:40;;;;;;;15.25;10.07;;;;;;;-147.05;0.00;58546.16;4790599;29;20334;-69
2022/03/07 06:56:07;;;;;;;16.08;10.32;;;;;;;-147.05;0.00;58546.16;4804856;29;20540;-68
2022/03/07 06:58:34;;;;;;;17.42;10.80;;;;;;;-147.05;0.00;58546.16;4809989;29;20051;-69
2022/03/07 07:01:01;;;;;;;17.17;10.60;;;;;;;-147.05;0.00;58546.16;4808737;29;20043;-69
2022/03/07 07:03:29;;;;;;;19.17;11.60;;;;;;;-147.05;0.00;58546.16;4805609;29;20040;-69
2022/03/07 07:05:56;;;;;;;18.38;10.95;;;;;;;-147.05;0.00;58546.16;4793282;29;21076;-69
2022/03/07 07:08:23;;;;;;;16.67;10.55;;;;;;;-147.05;0.00;58546.16;4792241;29;20052;-69
2022/03/07 07:10:50;;;;;;;17.23;10.63;;;;;;;-147.05;0.00;58546.16;4791649;29;20052;-68
2022/03/07 07:13:17;;;;;;;18.05;10.90;;;;;;;-147.05;0.00;58546.16;4794271;29;20117;-69
2022/03/07 07:15:54;;;;;;;17.33;10.43;;;;;;;-147.05;0.00;58546.16;4791021;29;20702;-69
2022/03/07 07:18:22;;;;;;;18.70;10.95;;;;;;;-147.05;0.00;58546.16;4793707;29;20538;-69
2022/03/07 07:20:50;;;;;;;18.50;11.02;;;;;;;-147.05;0.00;58546.16;4788808;29;20602;-69
2022/03/07 07:23:21;;;;;;;23.27;10.85;;;;;;;-147.05;0.00;58546.16;4809992;29;20092;-69
2022/03/07 07:25:49;;;;;;;20.13;10.98;;;;;;;-147.05;0.00;58546.16;4777880;29;20055;-69
2022/03/07 07:28:16;;;;;;;18.17;11.00;;;;;;;-147.05;0.00;58546.16;4776589;29;20143;-69
2022/03/07 07:30:46;;;;;;;17.83;10.93;;;;;;;-147.05;0.00;58546.16;4773566;29;20123;-70
2022/03/07 07:33:13;;;;;;;15.93;10.95;;;;;;;-147.05;0.00;58546.16;4774472;29;20060;-69
2022/03/07 07:35:41;;;;;;;15.18;9.95;;;;;;;-147.05;0.00;58546.16;4774958;29;20957;-68
2022/03/07 07:38:09;;;;;;;17.95;10.20;;;;;;;-147.05;0.00;58546.16;4776697;29;20593;-69
2022/03/07 07:40:36;;;;;;;13.25;9.43;;;;;;;-147.05;0.00;58546.16;4773143;30;20060;-69
2022/03/07 07:43:03;;;;;;;14.27;9.25;;;;;;;-147.05;0.00;58546.16;4801472;29;20504;-69
2022/03/07 07:45:32;;;;;;;13.88;9.43;;;;;;;-147.05;0.00;58546.16;4776474;29;20062;-69
2022/03/07 07:47:59;;;;;;;13.98;9.93;;;;;;;-147.05;0.00;58546.16;4772416;29;20048;-68
2022/03/07 07:50:28;;;;;;;13.38;9.57;;;;;;;-147.05;0.00;58546.16;4782177;29;20050;-69
2022/03/07 07:52:55;;;;;;;16.00;10.40;;;;;;;-147.05;0.00;58546.16;4788770;29;20047;-69
2022/03/07 07:55:23;;;;;;;14.93;9.00;;;;;;;-147.05;0.00;58546.16;4777061;29;20056;-69
2022/03/07 07:57:50;;;;;;;12.48;8.98;;;;;;;-147.05;0.00;58546.16;4778743;29;20056;-68
2022/03/07 08:00:20;;;;;;;14.63;10.02;;;;;;;-147.05;0.00;58546.16;4781665;29;20430;-71
2022/03/07 08:02:48;;;;;;;14.60;9.65;;;;;;;-147.05;0.00;58546.16;4775699;29;20593;-69
2022/03/07 08:05:18;;;;;;;12.98;8.65;;;;;;;-147.05;0.00;58546.16;4777289;29;20512;-69
2022/03/07 08:07:46;;;;;;;14.73;8.98;;;;;;;-147.05;0.00;58546.16;4779864;29;20053;-70
2022/03/07 08:10:15;;;;;;;13.27;9.98;;;;;;;-147.05;0.00;58546.16;4774328;29;20040;-69
2022/03/07 08:12:43;;;;;;;14.05;8.70;;;;;;;-147.05;0.00;58546.16;4780459;29;20049;-70
2022/03/07 08:15:15;;;;;;;16.23;9.02;;;;;;;-147.05;0.00;58546.16;4787435;29;20043;-70
2022/03/07 08:17:46;;;;;;;19.77;8.80;;;;;;;-147.05;0.00;58546.16;4783608;29;20059;-69
2022/03/07 08:20:13;;;;;;;20.10;8.85;;;;;;;-147.05;0.00;58546.16;4777827;29;20673;-69
2022/03/07 08:22:42;;;;;;;14.90;9.30;;;;;;;-147.05;0.00;58546.16;4785996;29;20064;-70
2022/03/07 08:25:10;;;;;;;12.52;8.60;;;;;;;-147.05;0.00;58546.16;4783674;29;20047;-69
2022/03/07 08:27:37;;;;;;;11.73;8.00;;;;;;;-147.05;0.00;58546.16;4786357;29;20045;-69
2022/03/07 08:30:07;;;;;;;10.73;8.05;;;;;;;-147.05;0.00;58546.16;4777351;29;20454;-70
2022/03/07 08:32:35;;;;;;;11.88;8.32;;;;;;;-147.05;0.00;58546.16;4777209;29;20056;-70
2022/03/07 08:35:05;;;;;;;14.15;8.43;;;;;;;-147.05;0.00;58546.16;4775849;29;20772;-70
2022/03/07 08:37:40;;;;;;;12.25;8.50;;;;;;;-147.05;0.00;58546.16;4789320;29;20507;-71
2022/03/07 08:40:08;;;;;;;14.02;8.40;;;;;;;-147.05;0.00;58546.16;4794361;29;20076;-69
2022/03/07 08:42:36;;;;;;;9.90;6.88;;;;;;;-147.05;0.00;58546.16;4789577;29;20063;-67
2022/03/07 08:45:07;;;;;;;10.85;7.63;;;;;;;-147.05;0.00;58546.16;4774643;29;20040;-68
2022/03/07 08:47:37;;;;;;;12.88;7.78;;;;;;;-147.05;0.00;58546.16;4781498;29;20681;-68
2022/03/07 08:50:09;;;;;;;10.52;7.28;;;;;;;-147.05;0.00;58546.16;4791200;29;20043;-68
2022/03/07 08:52:37;;;;;;;20.02;8.70;;;;;;;-147.05;0.00;58546.16;4787567;29;20118;-68
2022/03/07 08:55:05;;;;;;;18.73;7.10;;;;;;;-147.05;0.00;58546.16;4784931;29;20354;-70
2022/03/07 08:57:34;;;;;;;13.43;6.95;;;;;;;-147.05;0.00;58546.16;4773472;29;20072;-69
2022/03/07 09:00:03;;;;;;;11.75;7.07;;;;;;;-147.05;0.00;58546.16;4777263;29;20044;-67
2022/03/07 09:02:43;;;;;;;14.50;7.55;;;;;;;-147.05;0.00;58546.16;4792701;29;20684;-67
2022/03/07 09:05:11;;;;;;;10.40;6.80;;;;;;;-147.05;0.00;58546.16;4790648;29;20047;-69
2022/03/07 09:07:38;;;;;;;9.52;6.38;;;;;;;-147.05;0.00;58546.16;4807212;29;20047;-69
2022/03/07 09:10:05;;;;;;;9.85;5.93;;;;;;;-147.05;0.00;58546.16;4800826;29;20066;-69
2022/03/07 09:12:32;;;;;;;10.15;6.53;;;;;;;-147.05;0.00;58546.16;4798111;29;20415;-70
2022/03/07 09:15:02;;;;;;;8.52;5.63;;;;;;;-147.05;0.00;58546.16;4792941;29;20082;-70
2022/03/07 09:17:29;;;;;;;9.00;6.13;;;;;;;-147.05;0.00;58546.16;4798466;29;20054;-70
2022/03/07 09:19:56;;;;;;;9.15;5.60;;;;;;;-147.05;0.00;58546.16;4804681;29;20423;-69
2022/03/07 09:22:30;;;;;;;10.50;6.10;;;;;;;-147.05;0.00;58546.16;4807773;29;20054;-70
2022/03/07 09:24:58;;;;;;;10.13;5.70;;;;;;;-147.05;0.00;58546.16;4801366;29;20043;-70
2022/03/07 09:27:25;;;;;;;13.32;5.45;;;;;;;-147.05;0.00;58546.16;4787048;29;20078;-71
2022/03/07 09:29:52;;;;;;;17.42;5.22;;;;;;;-147.05;0.00;58546.16;4800499;29;20051;-69
2022/03/07 09:32:19;;;;;;;20.55;6.05;;;;;;;-147.05;0.00;58546.16;4804672;29;20217;-70
2022/03/07 09:34:46;;;;;;;9.85;5.10;;;;;;;-147.05;0.00;58546.16;4794192;29;20786;-69
2022/03/07 09:37:14;;;;;;;7.40;5.07;;;;;;;-147.05;0.00;58546.16;4793968;29;20063;-70
2022/03/07 09:39:41;;;;;;;9.68;5.57;;;;;;;-147.05;0.00;58546.16;4798500;29;20039;-70
2022/03/07 09:42:08;;;;;;;7.47;5.15;;;;;;;-147.05;0.00;58546.16;4804576;29;20048;-69
2022/03/07 09:44:35;;;;;;;8.60;4.85;;;;;;;-147.05;0.00;58546.16;4804982;29;20835;-69
2022/03/07 09:47:04;;;;;;;7.45;4.85;;;;;;;-147.05;0.00;58546.16;4804520;29;20098;-70
2022/03/07 09:49:32;;;;;;;7.18;4.50;;;;;;;-147.05;0.00;58546.16;4793910;29;20052;-69
2022/03/07 09:52:00;;;;;;;7.10;4.60;;;;;;;-147.05;0.00;58546.16;4794191;29;20055;-70
2022/03/07 09:54:27;;;;;;;7.35;4.32;;;;;;;-147.05;0.00;58546.16;4810243;29;20055;-69
2022/03/07 09:56:55;;;;;;;6.35;4.45;;;;;;;-147.05;0.00;58546.16;4807001;29;20048;-69
2022/03/07 09:59:24;;;;;;;5.82;4.63;;;;;;;-147.05;0.00;58546.16;4793191;29;20250;-70
2022/03/07 10:02:04;;;;;;;5.72;4.20;;;;;;;-147.05;0.00;58546.16;4793956;29;20044;-70
2022/03/07 10:04:38;;;;;;;10.95;4.53;;;;;;;-147.05;0.00;58546.16;4810063;29;20930;-70
2022/03/07 10:07:05;;;;;;;7.97;4.88;;;;;;;-147.05;0.00;58546.16;4805920;29;20095;-69
2022/03/07 10:09:32;;;;;;;10.75;4.43;;;;;;;-147.05;0.00;58546.16;4794475;29;20576;-69
2022/03/07 10:12:00;;;;;;;13.25;6.00;;;;;;;-147.05;0.00;58546.16;4790623;29;20126;-71
2022/03/07 10:14:30;;;;;;;8.73;5.53;;;;;;;-147.05;0.00;58546.16;4791910;29;20624;-69
2022/03/07 10:16:58;;;;;;;29.20;18.77;;;;;;;-147.05;0.00;58546.16;4789767;29;20056;-68
2022/03/07 10:19:26;;;;;;;9.10;5.38;;;;;;;-147.05;0.00;58546.16;4789674;29;20135;-69
2022/03/07 10:21:53;;;;;;;12.65;6.25;;;;;;;-147.05;0.00;58546.16;4788551;29;20091;-69
2022/03/07 10:24:34;;;;;;;7.72;4.38;;;;;;;-147.05;0.00;58546.16;4795737;29;20040;-69
2022/03/07 10:27:01;;;;;;;5.88;4.20;;;;;;;-147.05;0.00;58546.16;4788062;29;20048;-70
2022/03/07 10:29:28;;;;;;;7.60;4.85;;;;;;;-147.05;0.00;58546.16;4791014;29;20054;-69
2022/03/07 10:31:58;;;;;;;6.00;4.50;;;;;;;-147.05;0.00;58546.16;4789092;29;20040;-70
2022/03/07 10:34:26;;;;;;;7.22;4.63;;;;;;;-147.05;0.00;58546.16;4792711;29;20052;-70
2022/03/07 10:36:54;;;;;;;6.45;4.50;;;;;;;-147.05;0.00;58546.16;4803793;29;20610;-70
2022/03/07 10:39:24;;;;;;;7.07;4.85;;;;;;;-147.05;0.00;58546.16;4800679;29;20070;-71
2022/03/07 10:41:52;;;;;;;8.68;5.20;;;;;;;-147.05;0.00;58546.16;4791324;29;20040;-70
2022/03/07 10:44:28;;;;;;;5.82;3.80;;;;;;;-147.05;0.00;58546.16;4794449;29;20232;-71
2022/03/07 10:47:11;;;;;;;8.40;6.20;;;;;;;-147.05;0.00;58546.16;4790540;29;20052;-70
2022/03/07 10:49:57;;;;;;;7.10;4.32;;;;;;;-147.05;0.00;58546.16;4797369;29;20578;-70
2022/03/07 10:52:33;;;;;;;7.35;4.72;;;;;;;-147.05;0.00;58546.16;4787147;29;21045;-69
2022/03/07 10:55:00;;;;;;;6.25;4.60;;;;;;;-147.05;0.00;58546.16;4790041;29;20274;-71
2022/03/07 10:57:27;;;;;;;8.15;4.95;;;;;;;-147.05;0.00;58546.16;4790426;29;20051;-70
2022/03/07 10:59:54;;;;;;;9.38;4.53;;;;;;;-147.05;0.00;58546.16;4789120;29;20048;-70
2022/03/07 11:02:21;;;;;;;4.65;3.60;;;;;;;-147.05;0.00;58546.16;4790405;29;20052;-70
2022/03/07 11:04:49;;;;;;;6.18;4.32;;;;;;;-147.05;0.00;58546.16;4788389;29;20044;-69
2022/03/07 11:07:16;;;;;;;5.13;3.85;;;;;;;-147.05;0.00;58546.16;4782373;29;20739;-69
2022/03/07 11:09:46;;;;;;;17.98;6.05;;;;;;;-147.05;0.00;58546.16;4788624;29;20040;-71
2022/03/07 11:12:14;;;;;;;6.18;4.30;;;;;;;-147.05;0.00;58546.16;4792790;29;20114;-68
2022/03/07 11:14:43;;;;;;;8.80;4.30;;;;;;;-147.05;0.00;58546.16;4793930;29;20075;-69
2022/03/07 11:17:17;;;;;;;8.93;4.50;;;;;;;-147.05;0.00;58546.16;4788901;29;20078;-69
2022/03/07 11:19:47;;;;;;;5.70;3.85;;;;;;;-147.05;0.00;58546.16;4788546;29;20051;-67
2022/03/07 11:22:15;;;;;;;5.50;4.32;;;;;;;-147.05;0.00;58546.16;4789572;29;20082;-68
2022/03/07 11:24:43;;;;;;;6.53;4.40;;;;;;;-147.05;0.00;58546.16;4788872;29;20070;-69
2022/03/07 11:27:10;;;;;;;6.15;4.30;;;;;;;-147.05;0.00;58546.16;4790358;29;20051;-71
2022/03/07 11:29:42;;;;;;;8.48;4.63;;;;;;;-147.05;0.00;58546.16;4789033;29;20044;-69
2022/03/07 11:32:14;;;;;;;7.68;4.55;;;;;;;-147.05;0.00;58546.16;4787656;29;20048;-67
2022/03/07 11:35:11;;;;;;;5.50;4.10;;;;;;;-147.05;0.00;58546.16;4788334;29;20072;-69
2022/03/07 11:37:38;;;;;;;5.97;4.05;;;;;;;-147.05;0.00;58546.16;4779480;29;20079;-69
2022/03/07 11:40:16;;;;;;;6.35;4.45;;;;;;;-147.05;0.00;58546.16;4787575;29;20117;-72
2022/03/07 11:42:43;;;;;;;9.05;4.50;;;;;;;-147.05;0.00;58546.16;4784356;29;20058;-71
2022/03/07 11:45:16;;;;;;;6.85;4.60;;;;;;;-147.05;0.00;58546.16;4788462;29;20040;-70
2022/03/07 11:47:44;;;;;;;12.55;4.90;;;;;;;-147.05;0.00;58546.16;4787960;29;20135;-70
2022/03/07 11:50:12;;;;;;;6.78;4.55;;;;;;;-147.05;0.00;58546.16;4791376;29;20080;-69
2022/03/07 11:52:39;;;;;;;6.88;4.90;;;;;;;-147.05;0.00;58546.16;4798547;29;20036;-67
2022/03/07 11:55:19;;;;;;;5.88;4.85;;;;;;;-147.05;0.00;58546.16;4787462;29;20336;-68
2022/03/07 11:57:58;;;;;;;7.55;4.72;;;;;;;-147.05;0.00;58546.16;4790767;29;20688;-69
2022/03/07 12:00:31;;;;;;;7.07;4.63;;;;;;;-147.05;0.00;58546.16;4790781;29;20054;-66
2022/03/07 12:03:08;;;;;;;8.82;5.03;;;;;;;-147.05;0.00;58546.16;4793021;29;20078;-71
2022/03/07 12:05:35;;;;;;;7.53;4.97;;;;;;;-147.05;0.00;58546.16;4792659;29;20086;-68
2022/03/07 12:08:20;;;;;;;6.53;4.95;;;;;;;-147.05;0.00;58546.16;4783011;29;20799;-68
2022/03/07 12:10:53;;;;;;;;;;;;;;;-147.05;0.00;58546.16;4773752;29;20055;-68
2022/03/07 12:13:27;;;;;;;9.38;4.70;;;;;;;-147.05;0.00;58546.16;4775747;29;20248;-69
2022/03/07 12:15:59;;;;;;;6.72;4.63;;;;;;;-147.05;0.00;58546.16;4776245;29;20055;-67
2022/03/07 12:18:29;;;;;;;6.65;4.68;;;;;;;-147.05;0.00;58546.16;4772420;29;20044;-69
2022/03/07 12:20:59;;;;;;;8.05;4.93;;;;;;;-147.05;0.00;58546.16;4776085;29;20056;-69
2022/03/07 12:23:29;;;;;;;7.30;4.65;;;;;;;-147.05;0.00;58546.16;4778422;29;20056;-68
2022/03/07 12:26:06;;;;;;;6.75;4.22;;;;;;;-147.05;0.00;58546.16;4778388;29;20048;-68
2022/03/07 12:28:40;;;;;;;5.45;4.50;;;;;;;-147.05;0.00;58546.16;4774625;29;20100;-67
2022/03/07 12:31:08;;;;;;;5.63;4.32;;;;;;;-147.05;0.00;58546.16;4776396;29;20079;-69
2022/03/07 12:33:35;;;;;;;6.18;4.13;;;;;;;-147.05;0.00;58546.16;4775684;29;20044;-69
2022/03/07 12:36:25;;;;;;;5.45;4.00;;;;;;;-147.05;0.00;58546.16;4776032;29;20550;-68
2022/03/07 12:38:55;;;;;;;4.20;3.65;;;;;;;-147.05;0.00;58546.16;4774681;29;20132;-70
2022/03/07 12:41:34;;;;;;;7.40;4.53;;;;;;;-147.05;0.00;58546.16;4773749;29;20115;-68
2022/03/07 12:44:03;;;;;;;6.15;3.88;;;;;;;-147.05;0.00;58546.16;4770438;29;20078;-67
2022/03/07 12:46:30;;;;;;;5.35;3.85;;;;;;;-147.05;0.00;58546.16;4773790;29;20773;-68
2022/03/07 12:49:20;;;;;;;10.43;5.05;;;;;;;7.49;41.05;102512.03;5139656;27;20495;-68
2022/03/07 12:51:47;;;;;;;6.00;4.47;;;;;;;7.54;41.33;102509.44;5146138;27;20035;-70
2022/03/07 12:54:14;;;;;;;4.38;3.35;;;;;;;7.51;40.68;102507.69;5143411;27;20042;-67
2022/03/07 12:56:45;;;;;;;5.78;3.83;;;;;;;7.52;41.02;102501.56;5162278;27;20047;-70
2022/03/07 12:59:13;;;;;;;5.82;3.95;;;;;;;7.59;40.51;102503.38;5152229;27;20040;-68
2022/03/07 13:01:50;;;;;;;5.47;4.15;;;;;;;7.68;39.96;102494.69;5154779;27;20143;-68
2022/03/07 13:04:25;;;;;;;4.57;3.85;;;;;;;7.61;40.01;102500.75;5164616;27;20031;-69
2022/03/07 13:06:55;;;;;;;5.50;3.65;;;;;;;7.60;39.90;102499.88;5163117;27;20038;-68
2022/03/07 13:09:29;;;;;;;7.60;4.03;;;;;;;7.59;40.07;102481.47;5164871;27;20035;-72
2022/03/07 13:11:57;;;;;;;7.38;3.80;;;;;;;7.66;40.31;102479.78;5161584;27;20076;-69
2022/03/07 13:14:32;;;;;;;6.90;3.70;;;;;;;7.72;40.63;102490.38;5164889;27;20031;-69
2022/03/07 13:17:17;;;;;;;4.38;3.78;;;;;;;7.77;40.03;102481.66;5163329;27;20042;-71
2022/03/07 13:19:51;;;;;;;5.32;3.63;;;;;;;7.79;39.49;102484.28;5155706;27;20156;-68
2022/03/07 13:22:18;;;;;;;4.83;3.37;;;;;;;7.81;39.56;102472.06;5149974;27;20051;-67
2022/03/07 13:24:51;;;;;;;4.55;3.53;;;;;;;7.81;39.24;102461.56;5123023;27;20102;-70
2022/03/07 13:27:20;;;;;;;4.95;3.47;;;;;;;7.77;39.44;102470.25;5119267;27;20047;-71
2022/03/07 13:29:47;;;;;;;4.22;3.35;;;;;;;7.73;39.59;102464.13;5127954;27;20044;-72
2022/03/07 13:32:18;;;;;;;5.07;3.25;;;;;;;7.68;39.44;102462.31;5122840;27;20094;-72
2022/03/07 13:34:56;;;;;;;6.03;3.83;;;;;;;7.65;39.68;102455.31;5127221;27;20032;-71
2022/03/07 13:37:29;;;;;;;4.85;3.30;;;;;;;7.69;40.19;102446.56;5119236;27;20178;-70
2022/03/07 13:40:15;;;;;;;6.47;3.97;;;;;;;7.75;40.07;102440.47;5122094;27;20036;-71
2022/03/07 13:42:48;;;;;;;6.30;3.72;;;;;;;7.87;39.47;102442.34;5125619;27;20039;-71
2022/03/07 13:45:20;;;;;;;5.05;3.53;;;;;;;7.78;39.72;102436.13;5112251;27;20060;-68
2022/03/07 13:47:57;;;;;;;4.05;3.40;;;;;;;7.80;39.81;102435.25;5118729;27;20067;-70
2022/03/07 13:50:26;;;;;;;5.32;3.75;;;;;;;7.81;39.51;102444.91;5117187;27;20044;-70
2022/03/07 13:53:09;;;;;;;6.38;3.83;;;;;;;7.87;39.61;102440.56;5117431;27;20090;-70
2022/03/07 13:55:45;;;;;;;5.60;3.88;;;;;;;7.93;39.06;102434.47;5121430;27;20040;-73
2022/03/07 13:58:16;;;;;;;5.28;3.10;;;;;;;7.92;39.32;102436.25;5114532;27;20040;-72
2022/03/07 14:00:45;;;;;;;6.40;3.70;;;;;;;7.97;38.60;102438.91;5103015;27;20036;-72
2022/03/07 14:03:12;;;;;;;4.88;3.72;;;;;;;8.05;38.80;102431.94;5099270;27;20113;-69
2022/03/07 14:05:57;;;;;;;4.38;3.67;;;;;;;8.13;38.95;102432.00;5087282;28;20166;-68
2022/03/07 14:08:39;;;;;;;5.72;4.18;;;;;;;8.18;38.60;102430.25;5105578;28;20194;-71
2022/03/07 14:11:13;;;;;;;5.07;3.80;;;;;;;8.20;38.27;102427.63;5106211;28;20072;-69
2022/03/07 14:13:44;;;;;;;5.88;3.35;;;;;;;8.14;38.48;102443.38;5095941;28;20071;-70
2022/03/07 14:16:14;;;;;;;5.40;3.85;;;;;;;8.12;38.58;102430.22;5103681;27;20095;-70
2022/03/07 14:18:42;;;;;;;4.65;3.85;;;;;;;8.17;38.60;102432.88;5101248;27;20036;-69
2022/03/07 14:21:10;;;;;;;5.65;3.50;;;;;;;8.27;38.27;102436.41;5105898;27;20135;-65
2022/03/07 14:24:00;;;;;;;8.60;4.20;;;;;;;8.25;38.25;102433.78;5103454;28;20032;-68
2022/03/07 14:26:27;;;;;;;4.82;3.33;;;;;;;8.28;37.78;102425.94;5098323;28;20177;-67
2022/03/07 14:29:02;;;;;;;5.97;3.38;;;;;;;8.24;37.70;102425.00;5098334;28;20782;-68
2022/03/07 14:31:35;;;;;;;4.95;3.35;;;;;;;8.22;37.70;102425.88;5102849;27;20079;-68
2022/03/07 14:34:06;;;;;;;6.25;3.28;;;;;;;8.23;37.50;102425.91;5101028;28;20048;-70
2022/03/07 14:36:36;;;;;;;5.25;3.60;;;;;;;8.22;38.39;102423.25;5099839;28;20124;-70
2022/03/07 14:39:07;;;;;;;4.43;3.70;;;;;;;8.32;38.08;102419.81;5103386;27;20044;-71
2022/03/07 14:41:35;;;;;;;6.65;3.60;;;;;;;8.35;38.13;102416.31;5096424;27;20052;-68
2022/03/07 14:44:22;;;;;;;7.57;3.47;;;;;;;8.36;37.66;102412.81;5103432;27;20044;-69
2022/03/07 14:46:50;;;;;;;5.65;3.42;;;;;;;8.35;37.83;102404.06;5102413;27;20879;-69
2022/03/07 14:49:18;;;;;;;4.47;3.42;;;;;;;8.37;37.97;102398.78;5063465;28;20036;-72
2022/03/07 14:51:48;;;;;;;5.57;3.50;;;;;;;8.39;38.24;102405.81;5065136;28;20041;-68
2022/03/07 14:54:15;;;;;;;6.43;3.50;;;;;;;8.46;38.07;102400.59;5062337;28;20068;-65
2022/03/07 14:56:42;;;;;;;6.82;3.60;;;;;;;8.46;37.85;102401.47;5062192;28;21289;-67
2022/03/07 14:59:09;;;;;;;5.00;3.45;;;;;;;8.36;37.80;102397.94;5058249;28;20045;-70
2022/03/07 15:01:36;;;;;;;7.03;3.97;;;;;;;8.23;38.18;102390.84;5053268;28;20526;-68
2022/03/07 15:04:04;;;;;;;4.38;3.30;;;;;;;8.23;38.30;102388.22;5057462;28;20052;-68
2022/03/07 15:06:37;;;;;;;6.75;3.45;;;;;;;8.26;38.16;102379.47;5058446;28;20462;-69
2022/03/07 15:09:09;;;;;;;5.40;3.55;;;;;;;8.31;38.34;102383.88;5063865;28;20044;-69
2022/03/07 15:11:40;;;;;;;6.22;4.07;;;;;;;8.35;38.07;102387.41;5062443;28;20040;-68
2022/03/07 15:14:11;;;;;;;5.32;3.28;;;;;;;8.31;37.73;102378.63;5058116;28;20157;-68
2022/03/07 15:16:42;;;;;;;5.65;3.63;;;;;;;8.29;38.10;102383.00;5061915;28;20908;-66
2022/03/07 15:19:13;;;;;;;6.15;3.30;;;;;;;8.29;37.78;102387.38;5064632;28;20054;-69
2022/03/07 15:21:41;;;;;;;5.05;3.45;;;;;;;8.29;37.49;102376.88;5062597;28;20030;-68
2022/03/07 15:24:13;;;;;;;4.28;3.40;;;;;;;8.28;37.95;102372.47;5062195;28;20425;-67
2022/03/07 15:26:42;;;;;;;6.85;4.03;;;;;;;8.31;38.21;102362.00;5058888;28;20096;-68
2022/03/07 15:29:13;;;;;;;7.10;3.80;;;;;;;8.35;38.18;102369.00;5052033;28;20052;-68
2022/03/07 15:31:42;;;;;;;4.40;3.30;;;;;;;8.36;38.18;102363.78;5057901;28;20044;-67
2022/03/07 15:34:11;;;;;;;7.28;4.00;;;;;;;8.36;38.46;102361.13;5061486;28;20052;-70
2022/03/07 15:36:41;;;;;;;4.65;3.45;;;;;;;8.38;38.13;102359.41;5064524;28;20037;-67
2022/03/07 15:39:17;;;;;;;6.05;3.30;;;;;;;8.30;38.12;102361.09;5056875;28;20080;-70
2022/03/07 15:41:46;;;;;;;4.30;3.08;;;;;;;8.24;37.44;102356.69;5057068;28;20041;-69
2022/03/07 15:44:17;;;;;;;6.07;3.30;;;;;;;8.15;37.16;102354.03;5059303;28;20037;-67
2022/03/07 15:46:45;;;;;;;5.20;3.10;;;;;;;8.04;37.48;102348.75;5057327;28;20147;-70
2022/03/07 15:49:13;;;;;;;6.13;4.18;;;;;;;7.98;37.83;102335.59;5101859;28;20081;-72
2022/03/07 15:51:41;;;;;;;4.22;3.28;;;;;;;7.96;38.19;102354.84;5105152;27;20048;-67
2022/03/07 15:54:09;;;;;;;5.05;3.60;;;;;;;7.96;38.35;102352.22;5102206;27;20133;-68
2022/03/07 15:56:38;;;;;;;13.27;3.28;;;;;;;7.96;38.49;102342.59;5105841;28;20489;-68
2022/03/07 15:59:07;;;;;;;5.35;3.90;;;;;;;7.91;38.05;102349.56;5097451;28;20476;-68
2022/03/07 16:01:40;;;;;;;4.95;3.22;;;;;;;7.84;38.32;102347.78;5098808;27;20116;-67
2022/03/07 16:04:10;;;;;;;5.43;3.33;;;;;;;7.77;37.86;102342.50;5096613;28;20052;-67
2022/03/07 16:06:37;;;;;;;4.47;3.38;;;;;;;7.70;38.54;102348.56;5097390;28;20036;-66
2022/03/07 16:09:06;;;;;;;5.82;3.75;;;;;;;7.66;38.97;102341.56;5100162;27;20044;-67
2022/03/07 16:11:34;;;;;;;5.88;4.55;;;;;;;7.64;39.01;102342.41;5099881;28;20036;-67
2022/03/07 16:14:02;;;;;;;5.65;3.38;;;;;;;7.55;39.17;102338.84;5105621;28;20055;-68
2022/03/07 16:16:33;;;;;;;3.90;3.22;;;;;;;7.50;38.79;102331.81;5096783;27;20492;-66
2022/03/07 16:19:03;;;;;;;4.55;3.28;;;;;;;7.42;39.17;102351.03;5102044;28;20112;-67
2022/03/07 16:21:32;;;;;;;4.68;3.30;;;;;;;7.36;39.26;102340.50;5108405;28;20598;-69
2022/03/07 16:23:59;;;;;;;4.28;3.33;;;;;;;7.30;39.61;102335.19;5099811;28;20048;-68
2022/03/07 16:26:29;;;;;;;4.25;3.00;;;;;;;7.25;39.62;102334.28;5107088;27;20044;-67
2022/03/07 16:28:56;;;;;;;4.10;3.20;;;;;;;7.16;39.46;102332.47;5098843;27;20138;-68
2022/03/07 16:31:24;;;;;;;5.85;3.10;;;;;;;7.08;39.52;102328.91;5098136;27;20028;-67
2022/03/07 16:33:51;;;;;;;5.43;3.58;;;;;;;7.00;39.97;102328.84;5097164;28;20115;-68
2022/03/07 16:36:18;;;;;;;4.90;3.38;;;;;;;6.93;40.11;102333.16;5099352;27;20054;-69
2022/03/07 16:38:46;;;;;;;7.05;3.60;;;;;;;6.85;40.26;102319.09;5106987;27;20116;-67
2022/03/07 16:41:13;;;;;;;6.03;3.60;;;;;;;6.77;40.44;102326.03;5120054;27;20032;-66
2022/03/07 16:43:41;;;;;;;5.10;3.55;;;;;;;6.70;40.76;102314.59;5122752;27;20035;-67
2022/03/07 16:46:09;;;;;;;4.60;3.53;;;;;;;6.62;40.96;102316.28;5122077;27;20130;-67
2022/03/07 16:48:36;;;;;;;5.68;3.67;;;;;;;6.53;41.37;102323.19;5122852;27;20218;-68
2022/03/07 16:51:03;;;;;;;6.00;4.13;;;;;;;6.49;41.57;102315.28;5120839;27;20516;-66
2022/03/07 16:53:30;;;;;;;5.47;3.85;;;;;;;6.44;41.89;102315.22;5122588;27;20634;-68
2022/03/07 16:55:58;;;;;;;5.07;3.70;;;;;;;6.38;42.13;102323.00;5128650;27;20101;-68
2022/03/07 16:58:25;;;;;;;5.65;3.90;;;;;;;6.32;42.40;102317.72;5120989;27;20417;-69
2022/03/07 17:00:52;;;;;;;7.93;3.88;;;;;;;6.23;42.77;102313.25;5128701;27;20032;-68
2022/03/07 17:03:20;;;;;;;7.20;4.15;;;;;;;6.16;43.09;102314.03;5129284;27;20074;-67
2022/03/07 17:05:47;;;;;;;5.40;3.80;;;;;;;6.10;43.33;102309.59;5129532;27;20039;-67
2022/03/07 17:08:15;;;;;;;6.05;4.22;;;;;;;6.05;43.44;102313.94;5125951;27;20075;-68
2022/03/07 17:10:42;;;;;;;4.60;3.85;;;;;;;5.98;43.84;102312.94;5129000;27;20566;-68
2022/03/07 17:13:19;;;;;;;6.15;4.07;;;;;;;5.90;43.91;102309.34;5129090;27;20048;-69
2022/03/07 17:15:46;;;;;;;5.30;3.90;;;;;;;5.82;44.05;102311.84;5122643;27;20047;-67
2022/03/07 17:18:13;;;;;;;5.82;3.70;;;;;;;5.74;43.96;102311.75;5128376;27;20056;-67
2022/03/07 17:20:40;;;;;;;5.38;4.00;;;;;;;5.67;44.34;102316.88;5127444;27;20066;-67
2022/03/07 17:23:09;;;;;;;5.47;3.40;;;;;;;5.57;44.62;102308.91;5126194;27;20047;-67
2022/03/07 17:25:38;;;;;;;5.97;3.75;;;;;;;5.49;44.72;102310.53;5125492;27;20047;-69
2022/03/07 17:28:05;;;;;;;5.13;4.00;;;;;;;5.41;45.04;102310.41;5127703;27;20509;-67
2022/03/07 17:30:32;;;;;;;6.93;4.28;;;;;;;5.34;45.37;102312.94;5124774;27;20501;-65
2022/03/07 17:33:01;;;;;;;6.05;4.13;;;;;;;5.25;45.52;102316.28;5122952;27;20043;-66
2022/03/07 17:35:28;;;;;;;6.45;4.38;;;;;;;5.17;45.70;102318.75;5128281;27;20036;-69
2022/03/07 17:37:55;;;;;;;6.22;3.83;;;;;;;5.09;46.20;102310.78;5111621;27;20036;-68
2022/03/07 17:40:23;;;;;;;6.68;4.22;;;;;;;5.02;46.16;102315.91;5115077;27;20044;-68
2022/03/07 17:42:50;;;;;;;5.85;4.00;;;;;;;4.95;46.52;102322.78;5115547;27;20922;-68
2022/03/07 17:45:18;;;;;;;6.10;4.32;;;;;;;4.88;46.67;102324.41;5115787;27;20036;-68
2022/03/07 17:47:47;;;;;;;6.72;4.22;;;;;;;4.82;46.86;102324.31;5111691;27;20855;-68
2022/03/07 17:50:17;;;;;;;6.43;4.28;;;;;;;4.75;47.13;102322.41;5111784;27;20129;-68
2022/03/07 17:52:45;;;;;;;4.90;4.22;;;;;;;4.68;47.51;102329.25;5126289;27;20047;-68
2022/03/07 17:55:13;;;;;;;6.25;4.20;;;;;;;4.63;47.79;102331.78;5106216;27;20049;-68
2022/03/07 17:57:42;;;;;;;5.82;3.97;;;;;;;4.57;47.82;102320.38;5122321;27;20028;-66
2022/03/07 18:00:14;;;;;;;6.38;4.70;;;;;;;4.54;47.82;102325.53;5116673;27;20056;-67
2022/03/07 18:02:44;;;;;;;5.32;3.97;;;;;;;4.46;47.98;102334.09;5111791;27;20579;-67